KHYA/HYA METAR and TAF weather

Enter ICAO airport designator
Station Type Date Time Source
KHYA METAR 2021/08/05 05:56 UTC NOAA

KHYA 050556Z AUTO 12004KT 7SM -RA FEW006 BKN021 OVC033 21/21 A3005 RMK AO2 RAB06E15B45 SLP178 P0000 60007 T02060206 10206 20178 56012 $


Station Type Date Time Source
KHYA Decoded METAR 2021/08/05 05:56 UTC NOAA

HYANNIS BARNSTABLE BOARDMN, MA, United States (KHYA) 41-40N 070-16W 22M
Aug 05, 2021 - 01:56 AM EDT / 2021.08.05 0556 UTC
Wind: from the ESE (120 degrees) at 5 MPH (4 KT):0
Visibility: 7 mile(s):0
Sky conditions: overcast
Weather: light rain
Precipitation last hour: A trace
Temperature: 69.1 F (20.6 C)
Dew Point: 69.1 F (20.6 C)
Relative Humidity: 100%
Pressure (altimeter): 30.05 in. Hg (1017 hPa)
Pressure tendency: 0.04 inches (1.2 hPa) lower than three hours ago
ob: KHYA 050556Z AUTO 12004KT 7SM -RA FEW006 BKN021 OVC033 21/21 A3005 RMK AO2 RAB06E15B45 SLP178 P0000 60007 T02060206 10206 20178 56012
cycle: 6

Station Type Date Time Source
KHYA TAF 2021/08/05 06:42 UTC NOAA

TAF KHYA 050539Z 0506/0606 12009KT 3SM -SHRA BR OVC003
FM051100 15009KT 2SM SHRA BR OVC008
FM051600 18013G29KT 2SM -SHRA BR OVC008
FM051800 18015G31KT 3SM -SHRA BR OVC008
FM052100 19011G19KT 3SM BR VCSH OVC008
FM060200 22010KT 3SM BR VCSH OVC008
FM060300 23009KT P6SM OVC008

Example: see airport list